createdAt,value
2019-01-24T00:01:03.936Z,88.63
2019-01-24T00:03:33.344Z,88.76
2019-01-24T00:06:03.200Z,88.60
2019-01-24T00:08:32.825Z,88.68
2019-01-24T00:11:02.407Z,88.85
2019-01-24T00:13:32.153Z,89.13
2019-01-24T00:16:01.833Z,89.42
2019-01-24T00:18:31.468Z,89.67
2019-01-24T00:21:00.931Z,89.74
2019-01-24T00:23:30.502Z,89.57
2019-01-24T00:26:00.269Z,89.82
2019-01-24T00:28:29.974Z,89.81
2019-01-24T00:30:59.370Z,89.84
2019-01-24T00:33:29.156Z,89.97
2019-01-24T00:35:58.638Z,89.43
2019-01-24T00:38:28.035Z,89.41
2019-01-24T00:40:57.688Z,89.65
2019-01-24T00:43:27.425Z,89.67
2019-01-24T00:45:56.826Z,89.70
2019-01-24T00:48:26.305Z,89.75
2019-01-24T00:50:56.059Z,90.13
2019-01-24T00:53:25.463Z,89.93
2019-01-24T00:55:55.102Z,90.02
2019-01-24T00:58:25.025Z,89.95
2019-01-24T01:00:54.795Z,89.80
2019-01-24T01:03:24.354Z,89.74
2019-01-24T01:05:53.842Z,89.80
2019-01-24T01:08:23.762Z,89.95
2019-01-24T01:10:53.581Z,89.97
2019-01-24T01:13:22.985Z,89.89
2019-01-24T01:15:52.481Z,89.87
2019-01-24T01:18:22.245Z,89.56
2019-01-24T01:20:52.130Z,89.38
2019-01-24T01:23:21.521Z,89.18
2019-01-24T01:25:51.262Z,88.88
2019-01-24T01:28:20.660Z,88.73
2019-01-24T01:30:50.391Z,88.74
2019-01-24T01:33:20.321Z,88.57
2019-01-24T01:35:50.240Z,88.79
2019-01-24T01:38:19.990Z,89.08
2019-01-24T01:40:49.751Z,89.31
2019-01-24T01:43:19.636Z,89.42
2019-01-24T01:45:49.420Z,89.45
2019-01-24T01:48:19.243Z,89.18
2019-01-24T01:50:49.095Z,88.29
2019-01-24T01:53:18.597Z,88.00
2019-01-24T01:55:48.090Z,88.06
2019-01-24T01:58:17.762Z,88.27
2019-01-24T02:00:47.482Z,88.49
2019-01-24T02:03:17.279Z,88.72
2019-01-24T02:05:46.889Z,88.75
2019-01-24T02:08:16.382Z,88.67
2019-01-24T02:10:46.237Z,88.34
2019-01-24T02:13:15.631Z,87.98
2019-01-24T02:15:45.212Z,87.90
2019-01-24T02:18:15.291Z,88.21
2019-01-24T02:20:44.966Z,88.05
2019-01-24T02:23:14.643Z,88.15
2019-01-24T02:25:44.432Z,88.26
2019-01-24T02:28:14.447Z,88.69
2019-01-24T02:30:44.198Z,89.46
2019-01-24T02:33:13.653Z,90.20
2019-01-24T02:35:43.306Z,90.96
2019-01-24T02:38:12.920Z,91.43
2019-01-24T02:40:42.728Z,91.65
2019-01-24T02:43:12.383Z,91.78
2019-01-24T02:45:42.130Z,91.90
2019-01-24T02:48:11.706Z,92.00
2019-01-24T02:50:41.255Z,91.73
2019-01-24T02:53:11.068Z,91.72
2019-01-24T02:55:40.769Z,91.88
2019-01-24T02:58:10.369Z,92.00
2019-01-24T03:00:39.768Z,91.93
2019-01-24T03:03:09.314Z,91.80
2019-01-24T03:05:38.959Z,91.21
2019-01-24T03:08:08.369Z,90.81
2019-01-24T03:10:37.990Z,90.87
2019-01-24T03:13:07.818Z,90.87
2019-01-24T03:15:37.627Z,90.54
2019-01-24T03:18:07.523Z,90.48
2019-01-24T03:20:36.943Z,90.38
2019-01-24T03:23:06.574Z,90.32
2019-01-24T03:25:36.262Z,90.20
2019-01-24T03:28:06.073Z,89.44
2019-01-24T03:30:35.789Z,89.49
2019-01-24T03:33:05.469Z,89.11
2019-01-24T03:35:35.100Z,89.23
2019-01-24T03:38:04.690Z,89.74
2019-01-24T03:40:34.323Z,90.05
2019-01-24T03:43:03.712Z,90.29
2019-01-24T03:45:33.113Z,90.22
2019-01-24T03:48:02.603Z,89.66
2019-01-24T03:50:32.429Z,88.56
2019-01-24T03:53:02.131Z,88.66
2019-01-24T03:55:31.909Z,89.33
2019-01-24T03:58:01.674Z,90.16
2019-01-24T04:00:31.350Z,90.67
2019-01-24T04:03:00.771Z,91.05
2019-01-24T04:05:30.379Z,91.16
2019-01-24T04:08:00.212Z,91.39
2019-01-24T04:10:29.695Z,91.48
2019-01-24T04:12:59.086Z,91.34
2019-01-24T04:15:28.774Z,90.49
2019-01-24T04:17:58.674Z,89.95
2019-01-24T04:20:28.159Z,89.94
2019-01-24T04:22:57.708Z,89.95
2019-01-24T04:25:27.438Z,90.12
2019-01-24T04:27:56.922Z,90.37
2019-01-24T04:30:26.756Z,90.08
2019-01-24T04:32:56.144Z,90.08
2019-01-24T04:35:25.565Z,90.01
2019-01-24T04:37:55.056Z,90.36
2019-01-24T04:40:24.790Z,91.02
2019-01-24T04:42:54.439Z,91.64
2019-01-24T04:45:24.155Z,91.76
2019-01-24T04:47:53.880Z,91.80
2019-01-24T04:50:23.818Z,91.75
2019-01-24T04:52:53.430Z,91.66
2019-01-24T04:55:23.214Z,91.92
2019-01-24T04:57:52.801Z,92.13
2019-01-24T05:00:25.171Z,92.24
2019-01-24T05:02:54.739Z,92.17
2019-01-24T05:05:28.016Z,92.19
2019-01-24T05:07:55.854Z,91.41
2019-01-24T05:10:25.569Z,90.26
2019-01-24T05:12:55.289Z,90.14
2019-01-24T05:15:25.099Z,90.28
2019-01-24T05:17:54.689Z,90.25
2019-01-24T05:20:24.374Z,90.69
2019-01-24T05:22:54.217Z,90.94
2019-01-24T05:25:23.875Z,91.00
2019-01-24T05:27:53.698Z,91.12
2019-01-24T05:30:25.836Z,91.09
2019-01-24T05:32:55.562Z,90.91
2019-01-24T05:35:25.425Z,90.98
2019-01-24T05:37:55.304Z,91.14
2019-01-24T05:40:25.193Z,91.41
2019-01-24T05:42:54.741Z,91.11
2019-01-24T05:45:24.874Z,90.74
2019-01-24T05:47:54.361Z,90.59
2019-01-24T05:50:24.568Z,90.70
2019-01-24T05:52:54.207Z,90.92
2019-01-24T05:55:23.919Z,91.01
2019-01-24T05:57:53.744Z,90.66
2019-01-24T06:00:29.459Z,90.27
2019-01-24T06:02:58.927Z,90.05
2019-01-24T06:05:28.790Z,90.17
2019-01-24T06:07:58.189Z,90.52
2019-01-24T06:10:27.854Z,90.59
2019-01-24T06:12:57.341Z,90.66
2019-01-24T06:15:26.937Z,90.78
2019-01-24T06:17:56.331Z,91.05
2019-01-24T06:20:26.035Z,91.25
2019-01-24T06:22:55.924Z,91.46
2019-01-24T06:25:25.791Z,91.70
2019-01-24T06:27:55.570Z,92.03
2019-01-24T06:30:25.098Z,92.09
2019-01-24T06:32:54.806Z,91.60
2019-01-24T06:35:24.482Z,90.92
2019-01-24T06:37:54.293Z,90.16
2019-01-24T06:40:23.924Z,90.04
2019-01-24T06:42:53.683Z,90.11
2019-01-24T06:45:23.930Z,89.87
2019-01-24T06:47:53.541Z,89.23
2019-01-24T06:50:23.305Z,89.00
2019-01-24T06:52:53.087Z,89.03
2019-01-24T06:55:29.892Z,89.06
2019-01-24T06:57:59.318Z,89.00
2019-01-24T07:00:29.164Z,88.96
2019-01-24T07:02:58.813Z,89.15
2019-01-24T07:05:28.674Z,89.49
2019-01-24T07:07:58.079Z,89.65
2019-01-24T07:10:27.850Z,89.74
2019-01-24T07:12:57.353Z,89.76
2019-01-24T07:15:27.130Z,89.11
2019-01-24T07:17:56.539Z,88.61
2019-01-24T07:20:25.959Z,87.80
2019-01-24T07:22:55.439Z,87.21
2019-01-24T07:25:26.629Z,85.52
2019-01-24T07:27:56.479Z,84.66
2019-01-24T07:30:25.970Z,84.66
2019-01-24T07:32:55.567Z,85.00
2019-01-24T07:35:25.251Z,85.51
2019-01-24T07:37:55.115Z,86.47
2019-01-24T07:40:24.806Z,87.46
2019-01-24T07:42:54.395Z,88.07
2019-01-24T07:45:32.415Z,88.65
2019-01-24T07:48:02.074Z,89.10
2019-01-24T07:50:31.762Z,89.22
2019-01-24T07:53:01.806Z,89.27
2019-01-24T07:55:33.679Z,89.47
2019-01-24T07:58:03.734Z,89.61
2019-01-24T08:00:33.444Z,89.83
2019-01-24T08:03:03.049Z,89.88
2019-01-24T08:05:32.660Z,89.69
2019-01-24T08:08:02.264Z,89.46
2019-01-24T08:10:31.922Z,88.88
2019-01-24T08:13:01.478Z,87.94
2019-01-24T08:15:30.967Z,87.31
2019-01-24T08:18:00.681Z,86.42
2019-01-24T08:20:30.473Z,86.13
2019-01-24T08:22:59.974Z,86.21
2019-01-24T08:25:29.570Z,85.79
2019-01-24T08:27:59.114Z,85.58
2019-01-24T08:30:30.529Z,85.33
2019-01-24T08:33:00.403Z,85.15
2019-01-24T08:35:30.287Z,84.71
2019-01-24T08:37:59.900Z,84.38
2019-01-24T08:40:29.657Z,84.28
2019-01-24T08:42:59.215Z,83.93
2019-01-24T08:45:28.605Z,84.12
2019-01-24T08:47:58.495Z,84.79
2019-01-24T08:50:28.536Z,85.19
2019-01-24T08:52:58.296Z,85.65
2019-01-24T08:55:33.469Z,85.52
2019-01-24T08:58:03.914Z,85.56
2019-01-24T09:00:34.121Z,85.33
2019-01-24T09:03:04.045Z,85.59
2019-01-24T09:05:34.134Z,85.66
2019-01-24T09:08:03.805Z,86.12
2019-01-24T09:10:36.228Z,85.60
2019-01-24T09:13:06.931Z,83.90
2019-01-24T09:15:37.018Z,82.77
2019-01-24T09:18:07.591Z,82.26
2019-01-24T09:20:38.012Z,81.75
2019-01-24T09:23:08.177Z,81.95
2019-01-24T09:25:37.831Z,81.51
2019-01-24T09:28:07.350Z,82.22
2019-01-24T09:30:37.935Z,82.56
2019-01-24T09:33:07.325Z,82.47
2019-01-24T09:35:36.891Z,82.06
2019-01-24T09:38:06.546Z,82.08
2019-01-24T09:40:35.970Z,82.08
2019-01-24T09:43:05.780Z,82.37
2019-01-24T09:45:35.227Z,82.17
2019-01-24T09:48:07.022Z,81.99
2019-01-24T09:50:36.704Z,81.08
2019-01-24T09:53:06.419Z,80.56
2019-01-24T09:55:35.944Z,81.08
2019-01-24T09:58:05.693Z,80.72
2019-01-24T10:00:38.817Z,80.41
2019-01-24T10:03:08.731Z,79.16
2019-01-24T10:05:38.526Z,77.98
2019-01-24T10:08:08.805Z,77.79
2019-01-24T10:10:38.549Z,78.21
2019-01-24T10:13:08.464Z,76.93
2019-01-24T10:15:37.922Z,76.03
2019-01-24T10:18:07.422Z,75.08
2019-01-24T10:20:36.952Z,73.21
2019-01-24T10:23:06.649Z,74.19
2019-01-24T10:25:40.576Z,73.65
2019-01-24T10:28:10.594Z,72.02
2019-01-24T10:30:43.218Z,72.54
2019-01-24T10:33:11.282Z,72.15
2019-01-24T10:35:41.102Z,71.66
2019-01-24T10:38:10.704Z,71.35
2019-01-24T10:40:40.536Z,69.68
2019-01-24T10:43:10.327Z,70.07
2019-01-24T10:45:40.074Z,67.13
2019-01-24T10:48:10.011Z,65.21
2019-01-24T10:50:39.878Z,60.54
2019-01-24T10:53:09.576Z,60.25
2019-01-24T10:55:39.459Z,61.42
2019-01-24T10:58:09.103Z,62.06
2019-01-24T11:00:41.292Z,63.10
2019-01-24T11:03:13.265Z,63.13
2019-01-24T11:05:42.843Z,62.93
2019-01-24T11:08:12.704Z,62.68
2019-01-24T11:10:42.371Z,63.02
2019-01-24T11:13:11.772Z,64.24
2019-01-24T11:15:41.685Z,65.23
2019-01-24T11:18:11.497Z,66.22
2019-01-24T11:20:41.496Z,67.11
2019-01-24T11:23:11.177Z,65.29
2019-01-24T11:25:41.006Z,67.67
2019-01-24T11:28:10.667Z,69.17
2019-01-24T11:30:40.466Z,69.98
2019-01-24T11:33:10.607Z,70.85
2019-01-24T11:35:40.725Z,71.34
2019-01-24T11:38:11.808Z,70.88
2019-01-24T11:40:41.251Z,70.90
2019-01-24T11:43:11.098Z,71.10
2019-01-24T11:45:42.581Z,71.73
2019-01-24T11:48:12.161Z,71.28
2019-01-24T11:50:41.827Z,70.48
2019-01-24T11:53:11.871Z,68.55
2019-01-24T11:55:41.807Z,68.81
2019-01-24T11:58:11.220Z,68.22
2019-01-24T12:00:46.095Z,67.70
2019-01-24T12:03:15.992Z,66.98
2019-01-24T12:05:45.659Z,66.23
2019-01-24T12:08:15.161Z,66.10
2019-01-24T12:10:44.903Z,64.66
2019-01-24T12:13:14.559Z,65.74
2019-01-24T12:15:44.244Z,65.72
2019-01-24T12:18:14.073Z,65.53
2019-01-24T12:20:43.936Z,64.14
2019-01-24T12:23:13.409Z,63.45
2019-01-24T12:25:43.076Z,64.91
2019-01-24T12:28:12.865Z,66.43
2019-01-24T12:30:42.304Z,66.58
2019-01-24T12:33:11.874Z,64.98
2019-01-24T12:35:41.347Z,62.99
2019-01-24T12:38:11.303Z,61.43
2019-01-24T12:40:40.732Z,58.33
2019-01-24T12:43:10.191Z,54.71
2019-01-24T12:45:39.996Z,51.98
2019-01-24T12:48:09.606Z,48.48
2019-01-24T12:50:39.349Z,46.31
2019-01-24T12:53:10.610Z,47.30
2019-01-24T12:55:40.103Z,48.10
2019-01-24T12:58:09.561Z,49.99
2019-01-24T13:00:40.757Z,52.74
2019-01-24T13:03:10.268Z,53.73
2019-01-24T13:05:39.838Z,54.67
2019-01-24T13:08:09.556Z,56.22
2019-01-24T13:10:39.016Z,58.14
2019-01-24T13:13:09.705Z,59.51
2019-01-24T13:15:39.631Z,60.99
2019-01-24T13:18:09.028Z,62.66
2019-01-24T13:20:38.501Z,63.78
2019-01-24T13:23:07.950Z,63.80
2019-01-24T13:25:37.418Z,64.97
2019-01-24T13:28:07.456Z,67.13
2019-01-24T13:30:36.910Z,68.44
2019-01-24T13:33:07.661Z,68.97
2019-01-24T13:35:37.546Z,68.94
2019-01-24T13:38:07.760Z,69.59
2019-01-24T13:40:38.721Z,70.15
2019-01-24T13:43:08.639Z,71.15
2019-01-24T13:45:41.369Z,70.75
2019-01-24T13:48:11.070Z,71.19
2019-01-24T13:50:40.534Z,71.39
2019-01-24T13:53:10.141Z,72.53
2019-01-24T13:55:39.678Z,72.56
2019-01-24T13:58:09.804Z,73.01
2019-01-24T14:00:40.941Z,72.52
2019-01-24T14:03:41.745Z,72.99
2019-01-24T14:06:06.960Z,73.21
2019-01-24T14:08:36.356Z,73.26
2019-01-24T14:11:05.828Z,74.28
2019-01-24T14:13:35.324Z,73.99
2019-01-24T14:16:04.900Z,74.43
2019-01-24T14:18:34.850Z,74.69
2019-01-24T14:21:04.646Z,75.02
2019-01-24T14:42:31.596Z,76.71
2019-01-24T14:45:01.124Z,76.31
2019-01-24T14:47:31.087Z,76.52
2019-01-24T14:50:00.810Z,76.39
2019-01-24T14:52:30.563Z,76.87
2019-01-24T14:55:00.039Z,77.33
2019-01-24T14:57:29.828Z,77.93
2019-01-24T14:59:59.824Z,78.15
2019-01-24T15:02:29.389Z,78.28
2019-01-24T15:04:59.215Z,78.49
2019-01-24T15:07:28.766Z,78.71
2019-01-24T15:09:58.531Z,78.50
2019-01-24T15:12:28.342Z,78.45
2019-01-24T15:14:58.210Z,78.47
2019-01-24T15:17:28.968Z,78.82
2019-01-24T15:19:58.624Z,78.37
2019-01-24T15:22:28.738Z,78.63
2019-01-24T15:24:58.557Z,78.85
2019-01-24T15:27:27.980Z,79.02
2019-01-24T15:29:57.480Z,78.95
2019-01-24T15:32:27.050Z,79.07
2019-01-24T15:34:56.605Z,79.23
2019-01-24T15:37:26.227Z,79.45
2019-01-24T15:39:55.954Z,79.66
2019-01-24T15:42:25.844Z,79.70
2019-01-24T15:44:55.238Z,79.93
2019-01-24T15:47:24.637Z,79.84
2019-01-24T15:49:54.145Z,79.84
2019-01-24T15:52:23.923Z,79.60
2019-01-24T15:54:53.528Z,79.65
2019-01-24T15:57:23.395Z,79.72
2019-01-24T15:59:53.022Z,79.40
2019-01-24T16:02:22.462Z,79.01
2019-01-24T16:04:52.173Z,78.87
2019-01-24T16:07:22.072Z,78.86
2019-01-24T16:09:51.456Z,78.87
2019-01-24T16:12:21.985Z,79.07
2019-01-24T16:14:51.490Z,79.55
2019-01-24T16:17:21.011Z,80.04
2019-01-24T16:19:50.454Z,79.33
2019-01-24T16:22:19.990Z,79.21
2019-01-24T16:24:51.992Z,79.10
2019-01-24T16:27:21.482Z,79.43
2019-01-24T16:29:50.989Z,79.87
2019-01-24T16:32:20.392Z,80.33
2019-01-24T16:34:49.888Z,80.52
2019-01-24T16:37:19.410Z,80.58
2019-01-24T16:39:48.815Z,80.67
2019-01-24T16:42:18.304Z,80.81
2019-01-24T16:44:47.704Z,81.14
2019-01-24T16:47:17.125Z,81.46
2019-01-24T16:49:46.671Z,81.73
2019-01-24T16:52:16.460Z,82.00
2019-01-24T16:54:45.899Z,82.09
2019-01-24T16:57:15.350Z,82.16
2019-01-24T16:59:45.037Z,82.21
2019-01-24T17:02:14.527Z,82.46
2019-01-24T17:04:43.933Z,82.67
2019-01-24T17:07:14.554Z,82.91
2019-01-24T17:09:44.035Z,83.01
2019-01-24T17:12:13.685Z,82.67
2019-01-24T17:14:43.106Z,82.32
2019-01-24T17:17:14.601Z,81.96
2019-01-24T17:19:44.104Z,81.48
2019-01-24T17:22:13.836Z,81.34
2019-01-24T17:24:43.234Z,81.48
2019-01-24T17:27:13.061Z,81.44
2019-01-24T17:29:42.574Z,81.06
2019-01-24T17:32:12.253Z,80.56
2019-01-24T17:34:41.654Z,80.21
2019-01-24T17:37:11.076Z,80.24
2019-01-24T17:39:40.606Z,80.40
2019-01-24T17:42:10.096Z,80.33
2019-01-24T17:44:40.560Z,80.33
2019-01-24T17:47:10.096Z,80.49
2019-01-24T17:49:40.196Z,81.23
2019-01-24T17:52:09.675Z,81.91
2019-01-24T17:54:39.088Z,81.62
2019-01-24T17:57:08.499Z,81.13
2019-01-24T17:59:38.065Z,80.97
2019-01-24T18:02:07.850Z,81.00
2019-01-24T18:04:37.807Z,81.34
2019-01-24T18:07:07.701Z,81.68
2019-01-24T18:09:37.142Z,82.00
2019-01-24T18:12:06.513Z,82.11
2019-01-24T18:14:36.180Z,82.24
2019-01-24T18:17:09.483Z,82.66
2019-01-24T18:19:38.884Z,83.07
2019-01-24T18:22:08.582Z,82.53
2019-01-24T18:24:38.084Z,82.31
2019-01-24T18:27:07.662Z,82.49
2019-01-24T18:29:37.063Z,82.81
2019-01-24T18:32:06.776Z,83.38
2019-01-24T18:34:36.302Z,83.73
2019-01-24T18:37:05.986Z,84.00
2019-01-24T18:39:35.411Z,84.57
2019-01-24T18:42:05.016Z,84.88
2019-01-24T18:44:36.699Z,85.12
2019-01-24T18:47:06.394Z,85.21
2019-01-24T18:49:36.205Z,84.58
2019-01-24T18:52:06.717Z,84.93
2019-01-24T18:54:37.169Z,84.23
2019-01-24T18:57:07.694Z,83.74
2019-01-24T18:59:37.397Z,83.47
2019-01-24T19:02:07.238Z,83.47
2019-01-24T19:04:37.734Z,83.48
2019-01-24T19:07:07.161Z,83.60
2019-01-24T19:09:36.748Z,83.75
2019-01-24T19:12:06.597Z,84.32
2019-01-24T19:14:36.297Z,84.58
2019-01-24T19:17:06.113Z,84.80
2019-01-24T19:19:35.831Z,85.04
2019-01-24T19:22:05.884Z,85.26
2019-01-24T19:24:36.950Z,85.48
2019-01-24T19:27:06.900Z,85.74
2019-01-24T19:29:36.403Z,86.07
2019-01-24T19:32:06.237Z,86.43
2019-01-24T19:34:38.124Z,87.07
2019-01-24T19:37:07.725Z,87.56
2019-01-24T19:39:37.398Z,87.92
2019-01-24T19:42:08.623Z,87.44
2019-01-24T19:44:38.149Z,86.73
2019-01-24T19:47:09.199Z,86.91
2019-01-24T19:49:39.031Z,87.01
2019-01-24T19:52:08.695Z,87.02
2019-01-24T19:54:38.256Z,86.91
2019-01-24T19:57:10.019Z,86.79
2019-01-24T19:59:40.242Z,86.78
2019-01-24T20:02:09.927Z,87.03
2019-01-24T20:04:40.101Z,87.29
2019-01-24T20:07:09.573Z,87.52
2019-01-24T20:09:39.294Z,87.24
2019-01-24T20:12:08.960Z,86.99
2019-01-24T20:14:38.370Z,86.80
2019-01-24T20:17:08.099Z,87.04
2019-01-24T20:19:37.676Z,87.24
2019-01-24T20:22:07.813Z,87.19
2019-01-24T20:24:37.635Z,86.63
2019-01-24T20:27:07.127Z,85.73
2019-01-24T20:29:37.085Z,85.53
2019-01-24T20:32:07.106Z,86.06
2019-01-24T20:34:36.828Z,86.36
2019-01-24T20:37:06.354Z,86.62
2019-01-24T20:39:36.577Z,86.18
2019-01-24T20:42:06.596Z,86.33
2019-01-24T20:44:36.342Z,86.59
2019-01-24T20:47:06.154Z,86.57
2019-01-24T20:49:35.887Z,86.31
2019-01-24T20:52:06.899Z,86.22
2019-01-24T20:54:36.655Z,85.86
2019-01-24T20:57:08.399Z,85.79
2019-01-24T20:59:38.201Z,85.94
2019-01-24T21:02:08.133Z,86.07
2019-01-24T21:04:40.108Z,86.10
2019-01-24T21:07:09.955Z,86.00
2019-01-24T21:09:39.609Z,86.20
2019-01-24T21:12:09.488Z,86.64
2019-01-24T21:14:39.183Z,86.74
2019-01-24T21:17:08.767Z,86.67
2019-01-24T21:19:38.458Z,86.60
2019-01-24T21:22:08.108Z,86.20
2019-01-24T21:24:37.761Z,86.13
2019-01-24T21:27:07.170Z,84.87
2019-01-24T21:29:36.886Z,84.69
2019-01-24T21:32:06.707Z,85.26
2019-01-24T21:34:36.359Z,85.57
2019-01-24T21:37:06.062Z,85.44
2019-01-24T21:39:35.926Z,84.63
2019-01-24T21:42:06.040Z,84.51
2019-01-24T21:44:35.633Z,84.70
2019-01-24T21:47:05.128Z,84.98
2019-01-24T21:49:34.917Z,85.59
2019-01-24T21:52:04.525Z,85.94
2019-01-24T21:54:33.964Z,85.16
2019-01-24T21:57:03.743Z,84.78
2019-01-24T21:59:34.343Z,84.88
2019-01-24T22:02:03.739Z,85.53
2019-01-24T22:04:33.642Z,86.04
2019-01-24T22:07:03.369Z,86.51
2019-01-24T22:09:32.933Z,86.67
2019-01-24T22:12:02.344Z,86.06
2019-01-24T22:14:31.852Z,85.95
2019-01-24T22:17:01.331Z,86.14
2019-01-24T22:19:31.149Z,86.15
2019-01-24T22:22:00.982Z,86.23
2019-01-24T22:24:30.477Z,86.06
2019-01-24T22:27:00.160Z,86.21
2019-01-24T22:29:29.534Z,86.29
2019-01-24T22:31:59.003Z,86.01
2019-01-24T22:34:28.478Z,86.16
2019-01-24T22:36:59.390Z,86.00
2019-01-24T22:39:29.039Z,85.90
2019-01-24T22:41:58.458Z,86.29
2019-01-24T22:44:28.198Z,86.55
2019-01-24T22:46:57.673Z,86.22
2019-01-24T22:49:27.454Z,86.88
2019-01-24T22:51:56.868Z,86.88
2019-01-24T22:54:27.956Z,86.79
2019-01-24T22:56:57.824Z,86.60
2019-01-24T22:59:27.276Z,86.46
2019-01-24T23:02:05.861Z,86.36
2019-01-24T23:04:35.556Z,85.97
2019-01-24T23:07:05.563Z,86.02
2019-01-24T23:09:34.960Z,86.54
2019-01-24T23:12:05.274Z,86.75
2019-01-24T23:14:35.013Z,87.01
2019-01-24T23:17:04.637Z,86.49
2019-01-24T23:19:34.324Z,86.58
2019-01-24T23:22:04.054Z,86.78
2019-01-24T23:24:33.611Z,86.91
2019-01-24T23:27:03.408Z,87.30
2019-01-24T23:29:33.163Z,87.44
2019-01-24T23:32:02.659Z,87.44
2019-01-24T23:34:32.267Z,87.55
2019-01-24T23:37:01.682Z,87.86
2019-01-24T23:39:31.365Z,87.95
2019-01-24T23:42:00.850Z,87.54
2019-01-24T23:44:30.243Z,87.23
2019-01-24T23:46:59.989Z,87.23
2019-01-24T23:49:29.825Z,87.65
2019-01-24T23:51:59.514Z,87.96
2019-01-24T23:54:28.928Z,88.25
2019-01-24T23:56:58.339Z,88.24
2019-01-24T23:59:29.508Z,87.96
